Time,TemperatureF,DewpointF,PressureIn,WindDirection,WindDirectionDegrees,WindSpeedMPH,WindSpeedGustMPH,Humidity,HourlyPrecipIn,Conditions,Clouds,dailyrainin,SolarRadiationWatts/m^2,SoftwareType,DateUTC
2013-07-04 00:22:00,69.0,44.0,-100.00,ENE,78,2.0,7.0,40,0.00,,,0.00,0.000000,,2013-07-04 06:22:00,
2013-07-04 00:34:00,69.0,44.0,-100.00,ENE,78,2.0,7.0,40,0.00,,,0.00,0.000000,,2013-07-04 06:34:00,
2013-07-04 00:43:00,69.0,44.0,-100.00,ENE,78,2.0,7.0,40,0.00,,,0.00,0.000000,,2013-07-04 06:43:00,
2013-07-04 00:52:00,65.0,45.0,-100.00,East,92,1.0,4.0,49,-99.99,,,0.00,0.000000,,2013-07-04 06:52:00,
2013-07-04 01:12:00,65.0,45.0,-100.00,East,92,1.0,4.0,49,-99.99,,,0.00,0.000000,,2013-07-04 07:12:00,
2013-07-04 01:21:00,65.0,45.0,-100.00,East,92,1.0,4.0,49,-99.99,,,0.00,0.000000,,2013-07-04 07:21:00,
2013-07-04 01:34:00,65.0,45.0,-100.00,East,92,1.0,4.0,49,-99.99,,,0.00,0.000000,,2013-07-04 07:34:00,
2013-07-04 01:43:00,65.0,45.0,-100.00,East,92,1.0,4.0,49,-99.99,,,0.00,0.000000,,2013-07-04 07:43:00,
2013-07-04 01:52:00,60.0,44.0,-100.00,East,79,4.0,6.0,56,-99.99,,,0.00,0.000000,,2013-07-04 07:52:00,
2013-07-04 02:21:00,60.0,44.0,-100.00,East,79,4.0,6.0,56,-99.99,,,0.00,0.000000,,2013-07-04 08:21:00,
2013-07-04 02:33:00,60.0,44.0,-100.00,East,79,4.0,6.0,56,-99.99,,,0.00,0.000000,,2013-07-04 08:33:00,
2013-07-04 02:42:00,60.0,44.0,-100.00,East,79,4.0,6.0,56,-99.99,,,0.00,0.000000,,2013-07-04 08:42:00,
2013-07-04 02:52:00,58.0,44.0,-100.00,East,81,4.0,7.0,60,0.00,,,0.00,0.000000,,2013-07-04 08:52:00,
2013-07-04 03:22:00,58.0,44.0,-100.00,East,81,4.0,7.0,60,0.00,,,0.00,0.000000,,2013-07-04 09:22:00,
2013-07-04 03:32:00,58.0,44.0,-100.00,East,81,4.0,7.0,60,0.00,,,0.00,0.000000,,2013-07-04 09:32:00,
2013-07-04 03:42:00,58.0,44.0,-100.00,East,81,4.0,7.0,60,0.00,,,0.00,0.000000,,2013-07-04 09:42:00,
2013-07-04 03:52:00,55.0,43.0,-100.00,East,83,6.0,9.0,65,0.00,,,0.00,0.000000,,2013-07-04 09:52:00,
2013-07-04 04:11:00,55.0,43.0,-100.00,East,83,6.0,9.0,65,0.00,,,0.00,0.000000,,2013-07-04 10:11:00,
2013-07-04 04:22:00,55.0,43.0,-100.00,East,83,6.0,9.0,65,0.00,,,0.00,0.000000,,2013-07-04 10:22:00,
2013-07-04 04:33:00,55.0,43.0,-100.00,East,83,6.0,9.0,65,0.00,,,0.00,0.000000,,2013-07-04 10:33:00,
2013-07-04 04:42:00,55.0,43.0,-100.00,East,83,6.0,9.0,65,0.00,,,0.00,0.000000,,2013-07-04 10:42:00,
2013-07-04 04:52:00,53.0,35.0,-100.00,East,87,5.0,9.0,50,0.00,,,0.00,0.000000,,2013-07-04 10:52:00,
2013-07-04 05:11:00,53.0,35.0,-100.00,East,87,5.0,9.0,50,0.00,,,0.00,0.000000,,2013-07-04 11:11:00,
2013-07-04 05:22:00,53.0,35.0,-100.00,East,87,5.0,9.0,50,0.00,,,0.00,0.000000,,2013-07-04 11:22:00,
2013-07-04 05:33:00,53.0,35.0,-100.00,East,87,5.0,9.0,50,0.00,,,0.00,0.000000,,2013-07-04 11:33:00,
2013-07-04 05:43:00,53.0,35.0,-100.00,East,87,5.0,9.0,50,0.00,,,0.00,0.000000,,2013-07-04 11:43:00,
2013-07-04 05:52:00,53.0,35.0,-100.00,East,82,5.0,11.0,51,0.00,,,0.00,1.000000,,2013-07-04 11:52:00,
2013-07-04 06:11:00,53.0,35.0,-100.00,East,82,5.0,11.0,51,0.00,,,0.00,1.000000,,2013-07-04 12:11:00,
2013-07-04 06:22:00,53.0,35.0,-100.00,East,82,5.0,11.0,51,0.00,,,0.00,1.000000,,2013-07-04 12:22:00,
2013-07-04 06:33:00,53.0,35.0,-100.00,East,82,5.0,11.0,51,0.00,,,0.00,1.000000,,2013-07-04 12:33:00,
2013-07-04 06:43:00,53.0,35.0,-100.00,East,82,5.0,11.0,51,0.00,,,0.00,1.000000,,2013-07-04 12:43:00,
2013-07-04 06:52:00,55.0,42.0,-100.00,East,81,5.0,10.0,62,0.00,,,0.00,42.000000,,2013-07-04 12:52:00,
2013-07-04 07:22:00,55.0,42.0,-100.00,East,81,5.0,10.0,62,0.00,,,0.00,42.000000,,2013-07-04 13:22:00,
2013-07-04 07:33:00,55.0,42.0,-100.00,East,81,5.0,10.0,62,0.00,,,0.00,42.000000,,2013-07-04 13:33:00,
2013-07-04 07:43:00,55.0,42.0,-100.00,East,81,5.0,10.0,62,0.00,,,0.00,42.000000,,2013-07-04 13:43:00,
2013-07-04 07:52:00,61.0,47.0,-100.00,East,84,4.0,10.0,59,0.00,,,0.00,193.000000,,2013-07-04 13:52:00,
2013-07-04 08:22:00,61.0,47.0,-100.00,East,84,4.0,10.0,59,0.00,,,0.00,193.000000,,2013-07-04 14:22:00,
2013-07-04 08:33:00,61.0,47.0,-100.00,East,84,4.0,10.0,59,0.00,,,0.00,193.000000,,2013-07-04 14:33:00,
2013-07-04 08:43:00,61.0,47.0,-100.00,East,84,4.0,10.0,59,0.00,,,0.00,193.000000,,2013-07-04 14:43:00,
2013-07-04 08:52:00,69.0,40.0,-100.00,ENE,71,2.0,9.0,35,0.00,,,0.00,374.000000,,2013-07-04 14:52:00,
2013-07-04 09:33:00,69.0,40.0,-100.00,ENE,71,2.0,9.0,35,0.00,,,0.00,374.000000,,2013-07-04 15:33:00,
2013-07-04 09:43:00,69.0,40.0,-100.00,ENE,71,2.0,9.0,35,0.00,,,0.00,374.000000,,2013-07-04 15:43:00,
2013-07-04 11:52:00,77.0,49.0,-100.00,WSW,249,6.0,12.0,37,0.00,,,0.00,843.000000,,2013-07-04 17:52:00,
2013-07-04 12:22:00,77.0,49.0,-100.00,WSW,249,6.0,12.0,37,0.00,,,0.00,843.000000,,2013-07-04 18:22:00,
2013-07-04 12:33:00,77.0,49.0,-100.00,WSW,249,6.0,12.0,37,0.00,,,0.00,843.000000,,2013-07-04 18:33:00,
2013-07-04 12:43:00,77.0,49.0,-100.00,WSW,249,6.0,12.0,37,0.00,,,0.00,843.000000,,2013-07-04 18:43:00,
2013-07-04 12:52:00,79.0,50.0,-100.00,WSW,257,5.0,14.0,36,0.00,,,0.00,887.000000,,2013-07-04 18:52:00,
2013-07-04 13:11:00,79.0,50.0,-100.00,WSW,257,5.0,14.0,36,0.00,,,0.00,887.000000,,2013-07-04 19:11:00,
2013-07-04 13:22:00,79.0,50.0,-100.00,WSW,257,5.0,14.0,36,0.00,,,0.00,887.000000,,2013-07-04 19:22:00,
2013-07-04 13:33:00,79.0,50.0,-100.00,WSW,257,5.0,14.0,36,0.00,,,0.00,887.000000,,2013-07-04 19:33:00,
2013-07-04 13:43:00,79.0,50.0,-100.00,WSW,257,5.0,14.0,36,0.00,,,0.00,887.000000,,2013-07-04 19:43:00,
2013-07-04 13:52:00,75.0,48.0,-100.00,WNW,282,7.0,16.0,39,0.00,,,0.00,709.000000,,2013-07-04 19:52:00,
2013-07-04 14:11:00,75.0,48.0,-100.00,WNW,282,7.0,16.0,39,0.00,,,0.00,709.000000,,2013-07-04 20:11:00,
2013-07-04 14:22:00,75.0,48.0,-100.00,WNW,282,7.0,16.0,39,0.00,,,0.00,709.000000,,2013-07-04 20:22:00,
2013-07-04 14:33:00,75.0,48.0,-100.00,WNW,282,7.0,16.0,39,0.00,,,0.00,709.000000,,2013-07-04 20:33:00,
2013-07-04 14:42:00,75.0,48.0,-100.00,WNW,282,7.0,16.0,39,0.00,,,0.00,709.000000,,2013-07-04 20:42:00,
2013-07-04 14:52:00,77.0,46.0,-100.00,WSW,247,7.0,16.0,34,0.00,,,0.00,554.000000,,2013-07-04 20:52:00,
2013-07-04 15:11:00,77.0,46.0,-100.00,WSW,247,7.0,16.0,34,0.00,,,0.00,554.000000,,2013-07-04 21:11:00,
2013-07-04 15:22:00,77.0,46.0,-100.00,WSW,247,7.0,16.0,34,0.00,,,0.00,554.000000,,2013-07-04 21:22:00,
2013-07-04 15:32:00,77.0,46.0,-100.00,WSW,247,7.0,16.0,34,0.00,,,0.00,554.000000,,2013-07-04 21:32:00,
2013-07-04 15:42:00,77.0,46.0,-100.00,WSW,247,7.0,16.0,34,0.00,,,0.00,554.000000,,2013-07-04 21:42:00,